TFM - Tactical Decision Aid
ID: Runway Winds: CIG/VIS Threshold:

KMUI - Muir AAF/Indiantown, PA, US

Updated at: 1820 UTC 26 Oct 2021
Latest TAF at: 1732 UTC 26 Oct 2021

TAF Board

Time1756Z 26/19Z 26/20Z 26/21Z 26/22Z 26/23Z 27/00Z 27/01Z 27/02Z 27/03Z 27/04Z 27/05Z 27/06Z 27/07Z>>
Type OBS PRVL
  [TEMP]  
PRVL
  [TEMP]  
PRVL
  [TEMP]  
PRVL
  [TEMP]  
PRVL
  [TEMP]  
PRVL
  [TEMP]  
PRVL
  [TEMP]  
PRVL PRVL PRVL PRVL PRVL PRVL
VIS 5 5.59 5.59 5.59 5.59 5.59 5.59 5.59 5.59 5.59 >6 >6 >6 >6
CIG 17 15
  [12]  
15
  [12]  
15
  [12]  
15
  [12]  
15
  [12]  
15
  [12]  
15
  [12]  
15 15 15 15 15 15
Cover OVC BKN
  [OVC]  
BKN
  [OVC]  
BKN
  [OVC]  
BKN
  [OVC]  
BKN
  [OVC]  
BKN
  [OVC]  
BKN
  [OVC]  
BKN BKN BKN BKN BKN BKN
FltCat MVFR MVFR
  [MVFR]  
MVFR
  [MVFR]  
MVFR
  [MVFR]  
MVFR
  [MVFR]  
MVFR
  [MVFR]  
MVFR
  [MVFR]  
MVFR
  [MVFR]  
MVFR MVFR MVFR MVFR MVFR MVFR
WX -RA -SHRA
  [--]  
-SHRA
  [--]  
-SHRA
  [--]  
-SHRA
  [--]  
-SHRA
  [--]  
-SHRA
  [--]  
-SHRA
  [--]  
-SHRA -SHRA NSW NSW NSW NSW
WDir 280 300
[300]
300
[300]
300
[300]
300
[300]
300
[300]
300
[300]
300
[300]
300 300 350 350 350 350
WSpd 15 15
  [15]  
15
  [15]  
15
  [15]  
15
  [15]  
15
  [15]  
15
  [15]  
15
  [15]  
15 15 12 12 12 12
WGst 24 20
  [20]  
20
  [20]  
20
  [20]  
20
  [20]  
20
  [20]  
20
  [20]  
20
  [20]  
20 20 -- -- -- --

TDA Impact Legend

  None Marginal Slight Moderate High
Visibility (sm) > ≤X≤ <
Ceiling (100 ft) > ≤X≤ <
Wind Speed (kt) <15 15≤X<25 25≤X<30 ≥30
Wind Gust (kt) <15 15≤X<25 25≤X<35 ≥35
Weather No Wx Reported VCTS -TS,-FZRA TS,FZRA +TS,+FZRA
TAF
TAF AMD KMUI 261732Z 2617/2717 30015G20KT 9000 -SHRA BKN015 QNH2945INS
  TEMPO 2617/2702 OVC012
  BECMG 2704/2705 35012KT 9999 NSW BKN015 QNH2945INS
  BECMG 2712/2713 35015G25KT 9999 BKN020 QNH2950INS TX17/2618Z TN10/2710Z


METAR
KMUI 261756Z 28015G24KT 5SM -RA SCT007 BKN017 OVC032 13/10 A2947 RMK AO2A PK WND 28029/16 SLP982 60008 T01290097 10162 20129 55003
KMUI 261725Z 29011G29KT 3SM -RA FEW007 BKN014 OVC025 14/11 A2946 RMK AO2A SLP978
KMUI 261657Z 28013G21KT 4SM -RA FEW008 BKN019 OVC043 15/12 A2945 RMK AO2A PK WND 26027/45 RAB1555DZB01E03RAB03E23DZB23E25RAB25 SLP975 T01510117
KMUI 261556Z 29011G18KT 10SM -RA FEW010 OVC020 17/12 A2946 RMK AO2A RAB55 SLP978 T01650118
KMUI 261456Z 27008KT 10SM FEW009 OVC017 16/12 A2948 RMK AO2A SLP984 T01630124 57021